KMWA/MWA METAR and TAF weather

Enter ICAO airport designator
Station Type Date Time Source
KMWA METAR 2021/09/23 17:45 UTC NOAA

KMWA 231745Z 33010KT 20SM SCT050 20/08 A3010


Station Type Date Time Source
KMWA Decoded METAR 2021/09/23 17:45 UTC NOAA

Marion, Williamson County Regional Airport, IL, United States (KMWA) 37-45-01N 089-00-04W
Sep 23, 2021 - 01:45 PM EDT / 2021.09.23 1745 UTC
Wind: from the NNW (330 degrees) at 12 MPH (10 KT):0
Visibility: 20 mile(s):0
Sky conditions: partly cloudy
Temperature: 68 F (20 C)
Dew Point: 46 F (8 C)
Relative Humidity: 45%
Pressure (altimeter): 30.1 in. Hg (1019 hPa)
ob: KMWA 231745Z 33010KT 20SM SCT050 20/08 A3010
cycle: 18

Station Type Date Time Source
KMWA TAF UTC NOAA

Error!

Example: see airport list